createdAt,value
2023-03-06T00:00:59.094Z,13.30
2023-03-06T00:04:01.155Z,9.02
2023-03-06T00:07:03.195Z,9.30
2023-03-06T00:10:05.433Z,13.98
2023-03-06T00:13:09.114Z,11.40
2023-03-06T00:16:11.655Z,11.75
2023-03-06T00:19:13.679Z,13.73
2023-03-06T00:22:16.243Z,10.07
2023-03-06T00:25:20.159Z,9.95
2023-03-06T00:28:22.239Z,10.77
2023-03-06T00:31:24.271Z,13.43
2023-03-06T00:34:26.465Z,13.00
2023-03-06T00:37:28.426Z,16.23
2023-03-06T00:40:31.039Z,9.00
2023-03-06T00:43:33.034Z,11.20
2023-03-06T00:46:35.339Z,11.00
2023-03-06T00:49:37.537Z,12.85
2023-03-06T00:52:40.534Z,10.88
2023-03-06T00:55:46.462Z,11.45
2023-03-06T00:58:48.449Z,12.60
2023-03-06T01:01:50.459Z,10.90
2023-03-06T01:04:52.577Z,14.50
2023-03-06T01:07:54.666Z,13.10
2023-03-06T01:10:56.782Z,11.88
2023-03-06T01:13:58.809Z,10.35
2023-03-06T01:17:00.942Z,13.43
2023-03-06T01:20:03.526Z,13.30
2023-03-06T01:23:05.547Z,15.10
2023-03-06T01:26:07.665Z,12.00
2023-03-06T01:29:09.833Z,10.67
2023-03-06T01:32:11.848Z,9.95
2023-03-06T01:35:14.147Z,13.80
2023-03-06T01:38:16.245Z,8.93
2023-03-06T01:41:18.478Z,11.35
2023-03-06T01:44:20.555Z,13.30
2023-03-06T01:47:22.619Z,11.20
2023-03-06T01:50:24.830Z,9.27
2023-03-06T01:53:26.843Z,11.02
2023-03-06T01:56:28.920Z,13.00
2023-03-06T01:59:32.690Z,13.27
2023-03-06T02:02:34.721Z,15.02
2023-03-06T02:05:37.212Z,9.98
2023-03-06T02:08:39.647Z,9.27
2023-03-06T02:11:46.291Z,9.00
2023-03-06T02:14:49.203Z,13.20
2023-03-06T02:17:51.722Z,14.20
2023-03-06T02:20:55.635Z,12.32
2023-03-06T02:23:57.663Z,11.88
2023-03-06T02:27:01.107Z,10.30
2023-03-06T02:30:10.156Z,12.30
2023-03-06T02:33:13.389Z,12.98
2023-03-06T02:36:16.243Z,10.13
2023-03-06T02:39:19.613Z,12.00
2023-03-06T02:42:23.590Z,14.90
2023-03-06T02:45:33.805Z,12.27
2023-03-06T02:48:35.844Z,9.43
2023-03-06T02:51:37.833Z,11.10
2023-03-06T02:54:41.022Z,13.32
2023-03-06T02:57:43.113Z,12.43
2023-03-06T03:00:45.331Z,10.23
2023-03-06T03:03:47.376Z,12.70
2023-03-06T03:06:50.251Z,11.23
2023-03-06T03:09:52.779Z,15.53
2023-03-06T03:12:54.815Z,11.15
2023-03-06T03:15:59.780Z,12.88
2023-03-06T03:19:01.874Z,12.82
2023-03-06T03:22:04.088Z,15.27
2023-03-06T03:25:06.790Z,10.18
2023-03-06T03:28:08.827Z,16.00
2023-03-06T03:31:11.342Z,12.43
2023-03-06T03:34:13.578Z,9.63
2023-03-06T03:37:17.454Z,20.40
2023-03-06T03:40:19.595Z,16.00
2023-03-06T03:43:24.761Z,16.10
2023-03-06T03:46:27.242Z,12.95
2023-03-06T03:49:31.611Z,16.92
2023-03-06T03:52:34.931Z,16.15
2023-03-06T03:55:37.179Z,15.23
2023-03-06T03:58:39.607Z,14.07
2023-03-06T04:01:41.758Z,14.90
2023-03-06T04:04:43.881Z,13.35
2023-03-06T04:07:46.366Z,10.90
2023-03-06T04:10:49.541Z,12.77
2023-03-06T04:13:52.016Z,15.20
2023-03-06T04:16:54.160Z,19.00
2023-03-06T04:19:56.364Z,25.02
2023-03-06T04:22:58.626Z,13.13
2023-03-06T04:26:00.833Z,20.30
2023-03-06T04:29:03.430Z,31.05
2023-03-06T04:32:06.871Z,24.33
2023-03-06T04:35:09.193Z,27.15
2023-03-06T04:38:19.665Z,25.00
2023-03-06T04:41:22.078Z,20.43
2023-03-06T04:44:24.271Z,20.00
2023-03-06T04:47:26.331Z,20.90
2023-03-06T04:50:32.389Z,24.05
2023-03-06T04:53:34.456Z,20.60
2023-03-06T04:56:36.547Z,19.23
2023-03-06T04:59:39.287Z,18.27
2023-03-06T05:02:42.542Z,17.10
2023-03-06T05:05:44.588Z,15.73
2023-03-06T05:08:47.300Z,17.35
2023-03-06T05:11:49.413Z,16.37
2023-03-06T05:14:51.436Z,16.10
2023-03-06T05:17:53.426Z,16.48
2023-03-06T05:20:59.536Z,15.35
2023-03-06T05:24:01.589Z,16.65
2023-03-06T05:27:04.174Z,22.45
2023-03-06T05:30:07.093Z,19.90
2023-03-06T05:33:09.152Z,19.00
2023-03-06T05:36:11.606Z,23.42
2023-03-06T05:39:13.652Z,19.83
2023-03-06T05:42:15.667Z,21.53
2023-03-06T05:45:17.784Z,20.60
2023-03-06T05:48:19.888Z,20.70
2023-03-06T05:51:21.872Z,24.25
2023-03-06T05:54:24.553Z,25.02
2023-03-06T05:57:26.632Z,21.33
2023-03-06T06:00:28.677Z,19.75
2023-03-06T06:03:30.718Z,20.20
2023-03-06T06:06:32.733Z,22.92
2023-03-06T06:09:34.761Z,23.50
2023-03-06T06:12:36.771Z,20.77
2023-03-06T06:15:38.877Z,19.90
2023-03-06T06:18:41.542Z,21.08
2023-03-06T06:21:43.651Z,19.38
2023-03-06T06:24:45.687Z,17.25
2023-03-06T06:27:47.774Z,18.88
2023-03-06T06:30:49.895Z,19.30
2023-03-06T06:33:51.930Z,15.57
2023-03-06T06:36:54.659Z,18.58
2023-03-06T06:39:56.882Z,22.27
2023-03-06T06:42:58.913Z,21.13
2023-03-06T06:46:24.268Z,19.77
2023-03-06T06:49:23.059Z,25.83
2023-03-06T06:52:25.868Z,28.10
2023-03-06T06:55:28.065Z,31.27
2023-03-06T06:58:30.282Z,36.40
2023-03-06T07:01:32.736Z,27.20
2023-03-06T07:04:34.988Z,22.33
2023-03-06T07:07:38.325Z,21.77
2023-03-06T07:10:40.512Z,18.10
2023-03-06T07:13:42.694Z,25.20
2023-03-06T07:16:44.825Z,25.38
2023-03-06T07:19:47.014Z,25.73
2023-03-06T07:22:51.763Z,28.00
2023-03-06T07:25:54.700Z,39.92
2023-03-06T07:28:56.757Z,33.25
2023-03-06T07:31:59.361Z,26.67
2023-03-06T07:35:19.084Z,26.17
2023-03-06T07:38:22.214Z,32.58
2023-03-06T07:41:24.561Z,32.08
2023-03-06T07:44:26.963Z,30.27
2023-03-06T07:47:29.055Z,25.67
2023-03-06T07:50:32.698Z,23.85
2023-03-06T07:53:35.651Z,22.52
2023-03-06T07:56:40.524Z,19.83
2023-03-06T07:59:43.043Z,19.35
2023-03-06T08:02:45.453Z,17.40
2023-03-06T08:05:47.686Z,18.37
2023-03-06T08:08:54.258Z,19.08
2023-03-06T08:11:58.395Z,15.75
2023-03-06T08:15:01.811Z,18.13
2023-03-06T08:18:04.016Z,14.95
2023-03-06T08:21:07.430Z,13.18
2023-03-06T08:24:09.606Z,16.48
2023-03-06T08:27:11.749Z,15.67
2023-03-06T08:30:14.229Z,14.30
2023-03-06T08:33:16.251Z,15.50
2023-03-06T08:36:18.319Z,17.40
2023-03-06T08:39:21.206Z,17.43
2023-03-06T08:42:23.525Z,15.98
2023-03-06T08:45:28.043Z,19.65
2023-03-06T08:48:32.206Z,16.35
2023-03-06T08:51:35.015Z,14.00
2023-03-06T08:54:37.167Z,16.75
2023-03-06T08:57:39.373Z,15.98
2023-03-06T09:00:41.672Z,16.23
2023-03-06T09:03:49.130Z,13.70
2023-03-06T09:06:55.211Z,12.80
2023-03-06T09:10:00.818Z,15.32
2023-03-06T09:13:03.008Z,18.40
2023-03-06T09:16:05.329Z,15.25
2023-03-06T09:19:08.510Z,15.05
2023-03-06T09:22:11.158Z,15.75
2023-03-06T09:25:14.064Z,17.87
2023-03-06T09:28:16.112Z,16.92
2023-03-06T09:31:19.112Z,19.83
2023-03-06T09:34:21.212Z,16.60
2023-03-06T09:37:23.655Z,12.63
2023-03-06T09:40:33.764Z,14.13
2023-03-06T09:43:38.343Z,15.52
2023-03-06T09:46:52.108Z,12.23
2023-03-06T09:50:09.962Z,20.10
2023-03-06T09:53:18.079Z,15.55
2023-03-06T09:56:22.174Z,16.75
2023-03-06T09:59:25.335Z,15.60
2023-03-06T10:02:37.876Z,17.23
2023-03-06T10:05:42.192Z,13.02
2023-03-06T10:08:44.188Z,17.42
2023-03-06T10:11:49.542Z,15.63
2023-03-06T10:14:58.012Z,19.17
2023-03-06T10:18:02.904Z,14.63
2023-03-06T10:21:19.360Z,20.73
2023-03-06T10:24:43.783Z,13.53
2023-03-06T10:27:51.182Z,13.70
2023-03-06T10:30:59.385Z,17.05
2023-03-06T10:34:17.159Z,17.13
2023-03-06T10:37:20.996Z,16.20
2023-03-06T10:40:27.306Z,16.40
2023-03-06T10:43:30.013Z,17.13
2023-03-06T10:46:46.123Z,15.00
2023-03-06T10:49:57.006Z,13.73
2023-03-06T10:53:00.570Z,17.95
2023-03-06T10:56:04.296Z,17.30
2023-03-06T10:59:06.518Z,14.87
2023-03-06T11:02:25.538Z,14.45
2023-03-06T11:05:27.613Z,12.45
2023-03-06T11:08:29.889Z,13.68
2023-03-06T11:11:37.686Z,22.23
2023-03-06T11:14:40.130Z,15.82
2023-03-06T11:18:01.954Z,16.33
2023-03-06T11:21:07.632Z,19.13
2023-03-06T11:24:18.825Z,18.23
2023-03-06T11:27:27.136Z,15.73
2023-03-06T11:30:49.666Z,15.18
2023-03-06T11:33:54.981Z,8.77
2023-03-06T11:37:17.330Z,11.93
2023-03-06T11:40:28.627Z,14.20
2023-03-06T11:43:36.864Z,17.75
2023-03-06T11:46:41.676Z,8.90
2023-03-06T11:49:45.540Z,14.45
2023-03-06T11:52:57.361Z,12.85
2023-03-06T11:55:59.536Z,13.77
2023-03-06T11:59:01.548Z,19.23
2023-03-06T12:02:28.007Z,16.17
2023-03-06T12:05:42.533Z,15.98
2023-03-06T12:08:47.394Z,12.20
2023-03-06T12:12:01.249Z,18.20
2023-03-06T12:15:03.347Z,15.70
2023-03-06T12:18:23.539Z,12.52
2023-03-06T12:21:31.851Z,14.47
2023-03-06T12:24:33.922Z,13.27
2023-03-06T12:27:54.393Z,12.95
2023-03-06T12:31:25.917Z,15.35
2023-03-06T12:34:37.336Z,10.95
2023-03-06T12:37:39.338Z,15.88
2023-03-06T12:40:56.716Z,14.23
2023-03-06T12:43:58.721Z,14.93
2023-03-06T12:47:05.289Z,16.42
2023-03-06T12:50:13.662Z,14.63
2023-03-06T12:53:19.130Z,16.30
2023-03-06T12:56:22.375Z,12.82
2023-03-06T12:59:37.222Z,14.63
2023-03-06T13:03:00.667Z,18.58
2023-03-06T13:06:12.347Z,9.07
2023-03-06T13:09:20.307Z,9.98
2023-03-06T13:12:40.685Z,12.68
2023-03-06T13:15:44.324Z,14.05
2023-03-06T13:18:49.178Z,17.38
2023-03-06T13:21:54.154Z,9.95
2023-03-06T13:25:14.916Z,14.35
2023-03-06T13:28:24.986Z,13.53
2023-03-06T13:31:28.725Z,15.45
2023-03-06T13:34:36.629Z,15.18
2023-03-06T13:37:47.479Z,17.30
2023-03-06T13:40:49.489Z,15.88
2023-03-06T13:43:52.934Z,16.17
2023-03-06T13:47:02.537Z,13.00
2023-03-06T13:50:24.373Z,23.23
2023-03-06T13:53:37.869Z,20.25
2023-03-06T13:56:52.092Z,17.77
2023-03-06T14:00:09.587Z,16.27
2023-03-06T14:03:21.019Z,18.38
2023-03-06T14:06:52.287Z,18.90
2023-03-06T14:10:00.001Z,16.70
2023-03-06T14:13:06.634Z,15.68
2023-03-06T14:16:18.248Z,19.45
2023-03-06T14:19:21.019Z,20.98
2023-03-06T14:22:23.855Z,22.60
2023-03-06T14:25:30.191Z,21.77
2023-03-06T14:28:33.267Z,25.40
2023-03-06T14:31:41.138Z,24.38
2023-03-06T14:34:46.036Z,26.42
2023-03-06T14:37:50.208Z,26.33
2023-03-06T14:40:52.497Z,26.35
2023-03-06T14:44:07.667Z,21.17
2023-03-06T14:47:45.284Z,21.23
2023-03-06T14:50:49.195Z,22.80
2023-03-06T14:53:53.028Z,24.20
2023-03-06T14:56:59.819Z,24.02
2023-03-06T15:00:02.192Z,24.50
2023-03-06T15:03:05.800Z,21.15
2023-03-06T15:06:09.724Z,22.00
2023-03-06T15:09:14.576Z,16.88
2023-03-06T15:12:22.856Z,21.42
2023-03-06T15:15:26.627Z,24.50
2023-03-06T15:18:30.997Z,20.83
2023-03-06T15:21:35.751Z,23.13
2023-03-06T15:24:38.141Z,24.95
2023-03-06T15:27:40.164Z,24.60
2023-03-06T15:30:42.187Z,28.65
2023-03-06T15:33:44.381Z,25.80
2023-03-06T15:36:48.235Z,30.73
2023-03-06T15:40:06.442Z,24.13
2023-03-06T15:43:10.469Z,29.15
2023-03-06T15:46:12.704Z,38.97
2023-03-06T15:49:16.733Z,27.17
2023-03-06T15:52:19.911Z,26.08
2023-03-06T15:55:23.826Z,28.08
2023-03-06T15:58:27.185Z,25.27
2023-03-06T16:01:29.303Z,25.53
2023-03-06T16:04:31.509Z,29.42
2023-03-06T16:07:33.786Z,25.88
2023-03-06T16:10:37.512Z,25.30
2023-03-06T16:13:39.527Z,28.63
2023-03-06T16:16:41.587Z,29.17
2023-03-06T16:19:43.707Z,32.47
2023-03-06T16:22:46.509Z,26.42
2023-03-06T16:25:49.312Z,25.85
2023-03-06T16:28:51.415Z,26.02
2023-03-06T16:31:55.157Z,25.27
2023-03-06T16:34:57.184Z,26.53
2023-03-06T16:38:00.200Z,23.77
2023-03-06T16:41:02.305Z,33.92
2023-03-06T16:44:04.491Z,30.77
2023-03-06T16:47:06.938Z,32.03
2023-03-06T16:50:25.812Z,30.38
2023-03-06T16:53:27.869Z,31.20
2023-03-06T16:56:29.941Z,36.10
2023-03-06T16:59:31.933Z,41.53
2023-03-06T17:02:34.092Z,50.22
2023-03-06T17:05:36.622Z,43.88
2023-03-06T17:08:38.664Z,47.80
2023-03-06T17:11:43.065Z,42.40
2023-03-06T17:14:45.590Z,42.58
2023-03-06T17:17:47.740Z,46.03
2023-03-06T17:20:51.491Z,41.25
2023-03-06T17:23:53.546Z,44.35
2023-03-06T17:26:55.859Z,45.80
2023-03-06T17:29:58.017Z,40.72
2023-03-06T17:33:00.823Z,39.33
2023-03-06T17:36:02.902Z,36.20
2023-03-06T17:39:06.140Z,39.13
2023-03-06T17:42:08.942Z,38.55
2023-03-06T17:45:11.717Z,49.05
2023-03-06T17:48:14.177Z,46.50
2023-03-06T17:51:16.185Z,57.33
2023-03-06T17:54:18.368Z,53.20
2023-03-06T17:57:20.399Z,62.17
2023-03-06T18:00:23.087Z,29.95
2023-03-06T18:03:25.084Z,16.75
2023-03-06T18:06:30.213Z,26.92
2023-03-06T18:09:32.290Z,21.50
2023-03-06T18:12:34.350Z,28.35
2023-03-06T18:15:40.185Z,28.38
2023-03-06T18:18:42.383Z,23.90
2023-03-06T18:21:44.636Z,26.77
2023-03-06T18:24:46.656Z,25.05
2023-03-06T18:27:48.657Z,27.67
2023-03-06T18:30:50.729Z,21.00
2023-03-06T18:33:53.413Z,27.10
2023-03-06T18:36:55.472Z,29.30
2023-03-06T18:39:57.496Z,27.50
2023-03-06T18:42:59.739Z,22.75
2023-03-06T18:46:03.005Z,23.02
2023-03-06T18:49:05.248Z,25.00
2023-03-06T18:52:07.470Z,25.95
2023-03-06T18:55:10.162Z,24.08
2023-03-06T18:58:12.143Z,25.35
2023-03-06T19:01:14.245Z,23.77
2023-03-06T19:04:16.395Z,24.75
2023-03-06T19:07:18.874Z,29.95
2023-03-06T19:10:20.859Z,28.77
2023-03-06T19:13:23.025Z,29.08
2023-03-06T19:16:26.425Z,33.97
2023-03-06T19:19:29.432Z,27.00
2023-03-06T19:22:34.344Z,30.35
2023-03-06T19:25:36.432Z,37.50
2023-03-06T19:28:39.306Z,34.40
2023-03-06T19:31:41.752Z,31.38
2023-03-06T19:34:43.776Z,38.20
2023-03-06T19:37:45.888Z,36.70
2023-03-06T19:40:51.019Z,36.00
2023-03-06T19:43:54.124Z,39.92
2023-03-06T19:46:56.223Z,40.92
2023-03-06T19:49:58.261Z,44.77
2023-03-06T19:53:00.291Z,37.08
2023-03-06T19:56:06.322Z,36.28
2023-03-06T19:59:08.421Z,34.38
2023-03-06T20:02:10.816Z,42.42
2023-03-06T20:05:12.869Z,47.17
2023-03-06T20:08:14.839Z,41.80
2023-03-06T20:11:21.577Z,40.20
2023-03-06T20:14:23.826Z,41.47
2023-03-06T20:17:26.330Z,44.28
2023-03-06T20:20:28.743Z,25.80
2023-03-06T20:23:31.488Z,28.35
2023-03-06T20:26:34.936Z,27.38
2023-03-06T20:29:37.134Z,23.58
2023-03-06T20:32:39.272Z,17.55
2023-03-06T20:35:42.532Z,22.42
2023-03-06T20:38:44.589Z,20.77
2023-03-06T20:41:46.901Z,19.37
2023-03-06T20:44:48.900Z,24.67
2023-03-06T20:47:50.896Z,18.15
2023-03-06T20:51:02.945Z,19.77
2023-03-06T20:54:06.139Z,21.52
2023-03-06T20:57:08.200Z,21.27
2023-03-06T21:00:11.103Z,25.80
2023-03-06T21:03:13.098Z,35.78
2023-03-06T21:06:15.647Z,29.70
2023-03-06T21:09:17.733Z,31.38
2023-03-06T21:12:19.908Z,29.13
2023-03-06T21:15:22.558Z,25.45
2023-03-06T21:18:24.575Z,26.40
2023-03-06T21:21:28.326Z,29.93
2023-03-06T21:24:30.305Z,31.63
2023-03-06T21:27:32.330Z,40.10
2023-03-06T21:30:34.373Z,34.05
2023-03-06T21:33:36.625Z,30.90
2023-03-06T21:36:38.641Z,35.15
2023-03-06T21:39:40.652Z,39.13
2023-03-06T21:42:42.738Z,30.50
2023-03-06T21:45:46.121Z,31.30
2023-03-06T21:48:48.226Z,34.78
2023-03-06T21:51:50.328Z,39.43
2023-03-06T21:54:52.427Z,28.63
2023-03-06T21:57:55.648Z,32.00
2023-03-06T22:00:57.653Z,31.52
2023-03-06T22:04:00.365Z,31.95
2023-03-06T22:07:02.679Z,33.35
2023-03-06T22:10:05.703Z,30.88
2023-03-06T22:13:07.758Z,28.73
2023-03-06T22:16:09.919Z,31.77
2023-03-06T22:19:11.964Z,37.15
2023-03-06T22:22:13.956Z,37.13
2023-03-06T22:25:15.943Z,29.58
2023-03-06T22:28:19.089Z,34.72
2023-03-06T22:31:25.826Z,30.60
2023-03-06T22:34:27.859Z,28.75
2023-03-06T22:37:31.069Z,34.80
2023-03-06T22:40:33.213Z,32.67
2023-03-06T22:43:35.630Z,36.33
2023-03-06T22:46:38.576Z,32.35
2023-03-06T22:49:40.584Z,32.72
2023-03-06T22:52:42.651Z,39.23
2023-03-06T22:55:44.732Z,32.85
2023-03-06T22:58:47.000Z,36.53
2023-03-06T23:01:49.095Z,42.05
2023-03-06T23:04:53.853Z,37.72
2023-03-06T23:07:55.870Z,32.33
2023-03-06T23:10:57.791Z,29.63
2023-03-06T23:14:18.959Z,31.83
2023-03-06T23:17:39.426Z,30.75
2023-03-06T23:21:00.001Z,34.35
2023-03-06T23:24:20.591Z,26.77
2023-03-06T23:27:22.669Z,31.05
2023-03-06T23:30:24.711Z,30.17
2023-03-06T23:33:27.122Z,28.30
2023-03-06T23:36:29.672Z,29.23
2023-03-06T23:39:31.692Z,27.90
2023-03-06T23:42:33.938Z,28.40
2023-03-06T23:45:36.673Z,29.53
2023-03-06T23:48:39.459Z,32.85
2023-03-06T23:51:41.488Z,32.90
2023-03-06T23:54:43.934Z,30.37
2023-03-06T23:57:45.974Z,30.67
